Terminal Aerodrome Forecast
Issued by NWS

Home | Current Version | Previous Version | Text Only | Print | Product List | Glossary On
Versions: 1 2 3 4 5 6 7 8 9 10 11 12 13 14 15 16
661
FTUS41 KBTV 231731
TAFMPV
TAF
KMPV 231731Z 2318/2418 31012G20KT P6SM SKC
     FM240000 VRB03KT P6SM SKC
     FM240800 00000KT P6SM BKN070 OVC150
     FM241200 17005KT P6SM VCSH OVC060
     FM241500 17007KT 1 1/2SM -SN BR VV008=

USA.gov is the U.S. government's official web portal to all federal, state and local government web resources and services.